Airfield :
LOGIN :

Register | Disclaimer

   EN    FR    IT 

 










Legend :    VFR   Marginal VFR   IFR   Intensive IFR   Very Intensive IFR
Visi :
Ceiling :
>= 8 km
>= 3000ft
5 to 8 km
1000 to 3000 ft
1500m to 5 km
500 to 1000 ft
800 to 1500m
200 to 500 ft
< 800m
< 200 ft
Symbols :   Thunderstorms  Fog  Heavy snow  Heavy precipitations  Wind > 20 kt
SIGMETs :     Misc.  Thunderstorms  Icing  Turbulence  Mountain Waves  Volcanic Ashes






- Airport Elevation : 257 ft
- IATA code : MAN


EGCC - Manchester

CURRENT METAR :
  • 222050Z AUTO 10010G20KT 050V150 9999 NCD 08/05 Q0995 TEMPO BKN014

EXPIRED METARs :
  • 222020Z AUTO 09008KT 050V130 9999 NCD 08/05 Q0995 TEMPO BKN014
  • 221950Z AUTO VRB07KT 9999 NCD 08/05 Q0994 TEMPO RA BKN014
  • 221920Z AUTO 09007KT 050V150 9999 NCD 08/05 Q0994 TEMPO RA BKN014
  • 221850Z AUTO 10007KT 060V140 9999 -RA BKN047 08/06 Q0994 TEMPO RA BKN014
  • 221820Z AUTO 11005KT 050V180 9999 -RA BKN042 08/05 Q0994 NOSIG
  • 221750Z AUTO 12006KT 050V200 9999 -RA BKN041 BKN049 08/05 Q0994 NOSIG

TAF TAF EGCC
Valid from the 22 at 18:00 until the 24 at 00:00 UTC


221658Z 2218/2324 12009KT 9999 SCT012
TEMPO 2218/2221 4000 RA BKN012
TEMPO 2221/2302 BKN010
BECMG 2300/2303 06010KT
TEMPO 2303/2311 6000 RA BKN014
BECMG 2311/2313 8000 -RADZ BKN012
TEMPO 2311/2320 3000 RADZ BKN006
BECMG 2321/2324 VRB03KT 9999 NSW SCT012
ATIS : +44 161 499 2324



MET'MAP, your aeronautical weather chart ! - Copyright ORBIFLY December 2007 - Disclaimer

ORBIFLY MET'MAP TEAM :

Programming & Development : Alexandra Zaïnal
Concept & Development : Baudouin d'Aumeries
Co-Development & Prog : Marc-Olivier Méhu
Technical & hardware support : Manuel Goepfert

Contact : metmap@orbifly.com




SOURCES & CREDITS :

   NOAA